Portada
METAR-TAF:

METAR-TAF

Aeroports :

Wiscasset Airport

Wiscasset, Maine, Estats Units d'Amèrica

latitud: 43-57-49N, longitud: 069-42-42W, altitud: 20 m

Observació

L'informe es va fer fa 1 hora i 3 minuts, a les 14:01 UTC
Vent 4 kt del Sud-Est
Temperatura 14°C
Humitat 100%
Pressió 1007 hPa
Visibilitat: 4.8 km
Cel cobert a una alçada de 200 ft
boirina

METAR: KIWI 201401Z AUTO 13004KT 3SM BR OVC002 14/14 A2975 RMK AO2 T01440139

Hora: 11:04 (15:04 UTC)


TAF: manca

Observacions i pronòstics meteorològics de més de 4000 aeroports (METAR i TAF).

Les estacions disponibles són els punts grocs i vermells al mapa.

Posi el ratolí al punt desitjat per veure el nom de l'estació.

Feu clic per veure les observacions i els pronòstics meteorològics.

Per canviar el mapa: feu clic els botons verds amb una creu de color negre per apropar; al botó verd amb un guió per allunyar la imatge; o en les fletxes verdes per a mapes adjacents.


METAR-TAF: